createdAt,value
2022-08-10T00:00:21.393Z,17.47
2022-08-10T00:01:23.291Z,17.46
2022-08-10T00:02:25.128Z,17.46
2022-08-10T00:03:26.937Z,17.46
2022-08-10T00:04:28.711Z,17.46
2022-08-10T00:05:43.874Z,17.47
2022-08-10T00:06:55.732Z,17.46
2022-08-10T00:07:57.612Z,17.45
2022-08-10T00:08:59.554Z,17.45
2022-08-10T00:10:01.361Z,17.46
2022-08-10T00:11:03.284Z,17.46
2022-08-10T00:12:05.901Z,17.45
2022-08-10T00:13:07.881Z,17.44
2022-08-10T00:14:09.686Z,17.40
2022-08-10T00:15:13.100Z,17.30
2022-08-10T00:16:34.917Z,17.22
2022-08-10T00:17:36.857Z,17.17
2022-08-10T00:18:38.755Z,17.06
2022-08-10T00:20:03.869Z,17.00
2022-08-10T00:21:02.559Z,17.03
2022-08-10T00:22:04.324Z,17.07
2022-08-10T00:23:06.068Z,17.06
2022-08-10T00:24:08.051Z,17.03
2022-08-10T00:25:09.986Z,16.97
2022-08-10T00:26:11.816Z,16.92
2022-08-10T00:27:58.958Z,16.95
2022-08-10T00:28:35.515Z,16.98
2022-08-10T00:29:37.366Z,16.93
2022-08-10T00:30:39.172Z,16.89
2022-08-10T00:31:58.754Z,16.88
2022-08-10T00:33:01.165Z,16.87
2022-08-10T00:34:03.125Z,16.84
2022-08-10T00:35:05.362Z,16.78
2022-08-10T00:36:07.560Z,16.82
2022-08-10T00:37:09.352Z,16.82
2022-08-10T00:38:11.191Z,16.70
2022-08-10T00:39:13.825Z,16.67
2022-08-10T00:40:18.430Z,16.59
2022-08-10T00:41:37.200Z,16.64
2022-08-10T00:42:39.037Z,16.67
2022-08-10T00:43:40.767Z,16.67
2022-08-10T00:44:44.107Z,16.69
2022-08-10T00:45:45.972Z,16.73
2022-08-10T00:47:01.749Z,16.76
2022-08-10T00:48:03.898Z,16.79
2022-08-10T00:49:05.788Z,16.79
2022-08-10T00:50:08.452Z,16.76
2022-08-10T00:51:10.907Z,16.67
2022-08-10T00:52:13.635Z,16.68
2022-08-10T00:53:15.533Z,16.71
2022-08-10T00:54:24.059Z,16.67
2022-08-10T00:55:27.120Z,16.64
2022-08-10T00:57:16.969Z,16.56
2022-08-10T00:57:54.792Z,16.59
2022-08-10T00:58:57.475Z,16.64
2022-08-10T01:00:00.486Z,16.66
2022-08-10T01:01:02.705Z,16.64
2022-08-10T01:02:08.946Z,16.64
2022-08-10T01:03:13.742Z,16.64
2022-08-10T01:04:39.768Z,16.63
2022-08-10T01:05:51.295Z,16.68
2022-08-10T01:07:02.932Z,16.69
2022-08-10T01:08:07.481Z,16.70
2022-08-10T01:09:15.269Z,16.66
2022-08-10T01:10:32.797Z,16.67
2022-08-10T01:12:39.550Z,16.66
2022-08-10T01:13:17.349Z,16.63
2022-08-10T01:14:26.895Z,16.57
2022-08-10T01:15:34.732Z,16.51
2022-08-10T01:16:47.799Z,16.48
2022-08-10T01:17:51.125Z,16.51
2022-08-10T01:19:02.341Z,16.54
2022-08-10T01:20:09.683Z,16.58
2022-08-10T01:22:04.675Z,16.59
2022-08-10T01:23:21.729Z,16.58
2022-08-10T01:24:42.421Z,16.61
2022-08-10T01:26:10.973Z,16.60
2022-08-10T01:27:19.327Z,16.61
2022-08-10T01:28:35.002Z,16.63
2022-08-10T01:29:55.710Z,16.63
2022-08-10T01:31:00.416Z,16.59
2022-08-10T01:32:04.325Z,16.58
2022-08-10T01:33:13.977Z,16.58
2022-08-10T01:34:20.188Z,16.59
2022-08-10T01:35:26.368Z,16.57
2022-08-10T01:36:32.021Z,16.56
2022-08-10T01:37:39.115Z,16.57
2022-08-10T01:38:42.664Z,16.58
2022-08-10T01:39:47.210Z,16.58
2022-08-10T01:40:54.878Z,16.59
2022-08-10T01:42:01.646Z,16.59
2022-08-10T01:43:08.604Z,16.56
2022-08-10T01:44:10.762Z,16.56
2022-08-10T01:45:13.663Z,16.56
2022-08-10T01:46:15.955Z,16.58
2022-08-10T01:47:37.586Z,16.59
2022-08-10T01:48:40.524Z,16.59
2022-08-10T01:49:42.561Z,16.56
2022-08-10T01:50:56.224Z,16.41
2022-08-10T01:52:03.499Z,16.31
2022-08-10T01:53:08.007Z,16.33
2022-08-10T01:54:13.165Z,16.36
2022-08-10T01:55:15.638Z,16.35
2022-08-10T01:56:18.397Z,16.37
2022-08-10T01:57:20.982Z,16.40
2022-08-10T01:58:25.600Z,16.42
2022-08-10T01:59:33.024Z,16.44
2022-08-10T02:00:36.647Z,16.45
2022-08-10T02:01:40.822Z,16.44
2022-08-10T02:02:43.601Z,16.45
2022-08-10T02:04:01.264Z,16.45
2022-08-10T02:05:08.069Z,16.43
2022-08-10T02:06:12.994Z,16.44
2022-08-10T02:07:20.175Z,16.45
2022-08-10T02:08:23.857Z,16.40
2022-08-10T02:09:27.395Z,16.40
2022-08-10T02:10:29.960Z,16.31
2022-08-10T02:12:07.887Z,16.30
2022-08-10T02:12:56.948Z,16.32
2022-08-10T02:13:59.843Z,16.34
2022-08-10T02:15:03.867Z,16.34
2022-08-10T02:16:06.504Z,16.36
2022-08-10T02:17:59.780Z,16.37
2022-08-10T02:18:34.398Z,16.38
2022-08-10T02:19:37.127Z,16.37
2022-08-10T02:20:43.922Z,16.39
2022-08-10T02:22:36.242Z,16.39
2022-08-10T02:23:11.877Z,16.40
2022-08-10T02:24:15.866Z,16.39
2022-08-10T02:25:39.678Z,16.39
2022-08-10T02:26:45.265Z,16.36
2022-08-10T02:27:47.969Z,16.37
2022-08-10T02:28:50.241Z,16.34
2022-08-10T02:29:53.654Z,16.34
2022-08-10T02:30:57.922Z,16.27
2022-08-10T02:32:00.609Z,16.13
2022-08-10T02:33:03.826Z,16.10
2022-08-10T02:34:07.195Z,16.05
2022-08-10T02:35:21.866Z,16.02
2022-08-10T02:36:26.547Z,16.00
2022-08-10T02:37:29.801Z,16.00
2022-08-10T02:38:59.830Z,16.01
2022-08-10T02:40:02.566Z,16.03
2022-08-10T02:45:01.479Z,16.05
2022-08-10T02:45:22.445Z,16.03
2022-08-10T02:45:24.120Z,16.00
2022-08-10T02:45:50.184Z,15.99
2022-08-10T02:47:04.507Z,15.95
2022-08-10T02:48:10.032Z,15.93
2022-08-10T02:49:17.542Z,15.89
2022-08-10T02:50:27.622Z,15.89
2022-08-10T02:52:06.813Z,15.91
2022-08-10T02:53:55.408Z,15.92
2022-08-10T02:54:51.015Z,15.92
2022-08-10T02:56:16.226Z,15.93
2022-08-10T02:57:26.788Z,15.95
2022-08-10T02:58:45.291Z,15.97
2022-08-10T02:59:49.636Z,15.97
2022-08-10T03:00:53.901Z,15.98
2022-08-10T03:01:58.037Z,15.97
2022-08-10T03:03:01.098Z,15.97
2022-08-10T03:04:08.252Z,15.97
2022-08-10T03:05:11.914Z,15.98
2022-08-10T03:06:16.202Z,15.98
2022-08-10T03:07:44.298Z,15.97
2022-08-10T03:08:44.073Z,15.95
2022-08-10T03:09:46.398Z,15.96
2022-08-10T03:10:49.706Z,15.93
2022-08-10T03:12:35.082Z,15.91
2022-08-10T03:13:15.364Z,15.91
2022-08-10T03:14:17.800Z,15.90
2022-08-10T03:15:21.219Z,15.86
2022-08-10T03:16:23.541Z,15.82
2022-08-10T03:17:25.705Z,15.80
2022-08-10T03:18:28.940Z,15.80
2022-08-10T03:20:33.704Z,15.76
2022-08-10T03:20:56.050Z,15.75
2022-08-10T03:21:59.736Z,15.74
2022-08-10T03:23:03.650Z,15.76
2022-08-10T03:24:24.872Z,15.78
2022-08-10T03:25:28.702Z,15.79
2022-08-10T03:26:32.433Z,15.81
2022-08-10T03:27:34.308Z,15.84
2022-08-10T03:28:36.407Z,15.84
2022-08-10T03:30:23.481Z,15.85
2022-08-10T03:31:02.442Z,15.86
2022-08-10T03:32:05.547Z,15.85
2022-08-10T03:33:07.938Z,15.86
2022-08-10T03:34:22.110Z,15.86
2022-08-10T03:35:32.218Z,15.87
2022-08-10T03:36:44.039Z,15.86
2022-08-10T03:37:47.160Z,15.82
2022-08-10T03:38:52.001Z,15.77
2022-08-10T03:39:55.083Z,15.75
2022-08-10T03:40:58.029Z,15.70
2022-08-10T03:42:00.871Z,15.64
2022-08-10T03:43:03.674Z,15.65
2022-08-10T03:44:07.253Z,15.66
2022-08-10T03:45:09.863Z,15.68
2022-08-10T03:46:13.762Z,15.68
2022-08-10T03:47:16.685Z,15.65
2022-08-10T03:48:19.466Z,15.65
2022-08-10T03:49:22.304Z,15.65
2022-08-10T03:50:28.092Z,15.68
2022-08-10T03:51:49.536Z,15.69
2022-08-10T03:52:51.541Z,15.67
2022-08-10T03:54:02.930Z,15.67
2022-08-10T03:55:08.353Z,15.68
2022-08-10T03:56:28.672Z,15.68
2022-08-10T03:57:32.207Z,15.69
2022-08-10T03:58:34.426Z,15.69
2022-08-10T03:59:37.165Z,15.68
2022-08-10T04:00:39.310Z,15.66
2022-08-10T04:02:45.904Z,15.61
2022-08-10T04:03:07.514Z,15.57
2022-08-10T04:04:13.080Z,15.57
2022-08-10T04:05:18.405Z,15.58
2022-08-10T04:06:20.335Z,15.58
2022-08-10T04:07:22.289Z,15.55
2022-08-10T04:08:24.269Z,15.53
2022-08-10T04:09:43.076Z,15.47
2022-08-10T04:10:48.893Z,15.37
2022-08-10T04:11:50.671Z,15.40
2022-08-10T04:12:52.669Z,15.43
2022-08-10T04:13:55.135Z,15.45
2022-08-10T04:14:57.027Z,15.47
2022-08-10T04:15:58.927Z,15.49
2022-08-10T04:17:01.911Z,15.51
2022-08-10T04:18:06.376Z,15.51
2022-08-10T04:19:08.580Z,15.49
2022-08-10T04:20:21.242Z,15.48
2022-08-10T04:21:30.685Z,15.48
2022-08-10T04:22:33.634Z,15.47
2022-08-10T04:23:37.546Z,15.47
2022-08-10T04:24:41.956Z,15.49
2022-08-10T04:25:43.902Z,15.49
2022-08-10T04:26:45.945Z,15.49
2022-08-10T04:27:48.386Z,15.49
2022-08-10T04:28:50.410Z,15.48
2022-08-10T04:29:55.507Z,15.46
2022-08-10T04:30:57.847Z,15.44
2022-08-10T04:32:00.857Z,15.42
2022-08-10T04:33:03.411Z,15.41
2022-08-10T04:34:08.872Z,15.37
2022-08-10T04:35:11.552Z,15.33
2022-08-10T04:36:14.253Z,15.35
2022-08-10T04:37:18.415Z,15.38
2022-08-10T04:38:21.603Z,15.39
2022-08-10T04:39:23.963Z,15.44
2022-08-10T04:40:28.983Z,15.45
2022-08-10T04:41:32.698Z,15.33
2022-08-10T04:42:34.762Z,15.27
2022-08-10T04:43:36.765Z,15.29
2022-08-10T04:44:39.244Z,15.34
2022-08-10T04:45:48.293Z,15.38
2022-08-10T04:46:55.689Z,15.43
2022-08-10T04:48:03.062Z,15.48
2022-08-10T04:49:05.583Z,15.52
2022-08-10T04:50:27.839Z,15.57
2022-08-10T04:51:29.682Z,15.57
2022-08-10T04:52:32.096Z,15.56
2022-08-10T04:53:33.920Z,15.55
2022-08-10T04:54:55.963Z,15.57
2022-08-10T04:55:57.952Z,15.56
2022-08-10T04:56:59.834Z,15.56
2022-08-10T04:58:01.742Z,15.59
2022-08-10T04:59:05.410Z,15.60
2022-08-10T05:00:07.603Z,15.63
2022-08-10T05:01:24.710Z,15.68
2022-08-10T05:02:28.934Z,15.70
2022-08-10T05:03:33.606Z,15.69
2022-08-10T05:04:55.366Z,15.72
2022-08-10T05:05:57.275Z,15.73
2022-08-10T05:07:03.709Z,15.76
2022-08-10T05:08:05.483Z,15.77
2022-08-10T05:09:07.235Z,15.76
2022-08-10T05:10:13.410Z,15.75
2022-08-10T05:11:24.180Z,15.74
2022-08-10T05:12:26.609Z,15.75
2022-08-10T05:13:29.600Z,15.76
2022-08-10T05:14:31.437Z,15.77
2022-08-10T05:15:33.343Z,15.79
2022-08-10T05:16:35.155Z,15.78
2022-08-10T05:17:37.674Z,15.75
2022-08-10T05:18:39.501Z,15.74
2022-08-10T05:20:03.171Z,15.75
2022-08-10T05:21:03.157Z,15.76
2022-08-10T05:22:05.381Z,15.75
2022-08-10T05:23:07.677Z,15.77
2022-08-10T05:24:09.569Z,15.79
2022-08-10T05:25:12.788Z,15.79
2022-08-10T05:26:14.634Z,15.79
2022-08-10T05:27:16.440Z,15.82
2022-08-10T05:28:18.649Z,15.79
2022-08-10T05:29:25.466Z,15.74
2022-08-10T05:30:27.442Z,15.73
2022-08-10T05:31:29.340Z,15.76
2022-08-10T05:32:56.914Z,15.75
2022-08-10T05:33:57.185Z,15.79
2022-08-10T05:34:59.027Z,15.82
2022-08-10T05:36:01.360Z,15.86
2022-08-10T05:37:03.306Z,15.87
2022-08-10T05:38:09.519Z,15.91
2022-08-10T05:39:15.199Z,15.88
2022-08-10T05:40:17.270Z,15.85
2022-08-10T05:41:19.487Z,15.84
2022-08-10T05:42:21.994Z,15.86
2022-08-10T05:43:24.364Z,15.90
2022-08-10T05:44:26.430Z,15.92
2022-08-10T05:45:28.311Z,15.94
2022-08-10T05:46:30.208Z,15.92
2022-08-10T05:48:55.191Z,15.85
2022-08-10T05:49:00.218Z,15.84
2022-08-10T05:50:03.161Z,15.85
2022-08-10T05:51:07.425Z,15.80
2022-08-10T05:52:09.487Z,15.77
2022-08-10T05:53:58.889Z,15.70
2022-08-10T05:54:34.497Z,15.66
2022-08-10T05:55:36.568Z,15.69
2022-08-10T05:56:55.788Z,15.72
2022-08-10T05:58:00.166Z,15.71
2022-08-10T05:59:02.086Z,15.75
2022-08-10T06:00:32.895Z,15.76
2022-08-10T06:01:28.636Z,15.78
2022-08-10T06:02:50.408Z,15.83
2022-08-10T06:03:54.364Z,15.90
2022-08-10T06:04:57.293Z,15.86
2022-08-10T06:05:59.504Z,15.82
2022-08-10T06:07:04.471Z,15.81
2022-08-10T06:08:12.869Z,15.87
2022-08-10T06:09:15.574Z,15.94
2022-08-10T06:10:31.383Z,15.96
2022-08-10T06:12:28.113Z,16.04
2022-08-10T06:13:27.125Z,16.10
2022-08-10T06:14:53.030Z,16.18
2022-08-10T06:16:02.895Z,16.26
2022-08-10T06:17:05.918Z,16.30
2022-08-10T06:18:08.031Z,16.32
2022-08-10T06:19:10.914Z,16.35
2022-08-10T06:20:16.345Z,16.34
2022-08-10T06:21:18.567Z,16.33
2022-08-10T06:22:20.358Z,16.32
2022-08-10T06:23:23.668Z,16.26
2022-08-10T06:24:31.113Z,16.26
2022-08-10T06:26:11.375Z,16.27
2022-08-10T06:26:55.325Z,16.34
2022-08-10T06:27:57.757Z,16.35
2022-08-10T06:29:08.058Z,16.31
2022-08-10T06:30:20.970Z,16.34
2022-08-10T06:31:24.304Z,16.39
2022-08-10T06:32:28.777Z,16.39
2022-08-10T06:33:32.183Z,16.39
2022-08-10T06:34:37.637Z,16.42
2022-08-10T06:35:40.274Z,16.50
2022-08-10T06:36:43.924Z,16.58
2022-08-10T06:37:50.915Z,16.63
2022-08-10T06:39:06.876Z,16.70
2022-08-10T06:40:16.780Z,16.69
2022-08-10T06:41:23.777Z,16.71
2022-08-10T06:42:47.324Z,16.73
2022-08-10T06:44:09.394Z,16.73
2022-08-10T06:45:12.477Z,16.76
2022-08-10T06:46:16.830Z,16.75
2022-08-10T06:47:22.893Z,16.78
2022-08-10T06:48:26.822Z,16.84
2022-08-10T06:49:30.035Z,16.90
2022-08-10T06:50:56.056Z,16.97
2022-08-10T06:52:01.954Z,17.04
2022-08-10T06:53:05.749Z,17.09
2022-08-10T06:54:09.300Z,17.08
2022-08-10T06:55:18.709Z,17.09
2022-08-10T06:56:38.133Z,17.11
2022-08-10T06:57:44.402Z,17.12
2022-08-10T06:59:05.857Z,17.14
2022-08-10T07:00:08.537Z,17.13
2022-08-10T07:01:14.886Z,17.11
2022-08-10T07:02:21.961Z,17.16
2022-08-10T07:03:26.738Z,17.18
2022-08-10T07:04:34.354Z,17.20
2022-08-10T07:05:38.567Z,17.26
2022-08-10T07:06:45.611Z,17.25
2022-08-10T07:07:48.556Z,17.25
2022-08-10T07:08:51.599Z,17.25
2022-08-10T07:09:54.869Z,17.24
2022-08-10T07:10:57.041Z,17.25
2022-08-10T07:12:08.375Z,17.28
2022-08-10T07:13:12.703Z,17.37
2022-08-10T07:14:18.582Z,17.42
2022-08-10T07:15:21.190Z,17.43
2022-08-10T07:16:28.522Z,17.48
2022-08-10T07:17:33.847Z,17.47
2022-08-10T07:18:39.126Z,17.54
2022-08-10T07:19:49.439Z,17.59
2022-08-10T07:20:53.910Z,17.62
2022-08-10T07:21:58.094Z,17.65
2022-08-10T07:23:56.868Z,17.65
2022-08-10T07:24:23.581Z,17.70
2022-08-10T07:25:26.217Z,17.74
2022-08-10T07:26:29.179Z,17.79
2022-08-10T07:27:39.080Z,17.84
2022-08-10T07:28:54.096Z,17.86
2022-08-10T07:29:56.649Z,17.90
2022-08-10T07:31:00.023Z,17.94
2022-08-10T07:32:02.982Z,17.99
2022-08-10T07:33:05.759Z,18.05
2022-08-10T07:34:08.264Z,18.09
2022-08-10T07:35:12.059Z,18.13
2022-08-10T07:36:14.510Z,18.14
2022-08-10T07:37:17.322Z,18.19
2022-08-10T07:38:22.263Z,18.17
2022-08-10T07:40:01.974Z,18.22
2022-08-10T07:40:49.096Z,18.27
2022-08-10T07:41:53.263Z,18.33
2022-08-10T07:42:58.358Z,18.40
2022-08-10T07:44:03.336Z,18.45
2022-08-10T07:45:05.719Z,18.51
2022-08-10T07:46:12.395Z,18.57
2022-08-10T07:47:16.337Z,18.63
2022-08-10T07:48:28.952Z,18.64
2022-08-10T07:49:34.827Z,18.66
2022-08-10T07:50:40.802Z,18.69
2022-08-10T07:51:43.186Z,18.73
2022-08-10T07:52:46.493Z,18.78
2022-08-10T07:53:53.061Z,18.85
2022-08-10T07:54:55.740Z,18.91
2022-08-10T07:56:05.234Z,18.92
2022-08-10T07:57:31.354Z,18.97
2022-08-10T07:58:37.157Z,19.04
2022-08-10T07:59:41.002Z,19.05
2022-08-10T08:00:43.996Z,19.10
2022-08-10T08:01:52.351Z,19.16
2022-08-10T08:02:58.918Z,19.20
2022-08-10T08:04:05.782Z,19.25
2022-08-10T08:05:59.116Z,19.26
2022-08-10T08:06:36.901Z,19.31
2022-08-10T08:07:39.545Z,19.35
2022-08-10T08:08:43.023Z,19.41
2022-08-10T08:09:58.179Z,19.44
2022-08-10T08:11:03.365Z,19.49
2022-08-10T08:12:06.845Z,19.49
2022-08-10T08:13:08.930Z,19.51
2022-08-10T08:14:12.422Z,19.54
2022-08-10T08:16:17.796Z,19.58
2022-08-10T08:16:38.888Z,19.60
2022-08-10T08:17:42.281Z,19.65
2022-08-10T08:19:03.671Z,19.68
2022-08-10T08:20:07.943Z,19.75
2022-08-10T08:24:02.258Z,19.80
2022-08-10T08:24:08.544Z,19.90
2022-08-10T08:24:09.125Z,19.87
2022-08-10T08:25:17.644Z,19.93
2022-08-10T08:26:21.650Z,19.98
2022-08-10T08:27:24.499Z,20.05
2022-08-10T08:28:27.318Z,20.10
2022-08-10T08:29:29.611Z,20.18
2022-08-10T08:30:32.444Z,20.22
2022-08-10T08:31:35.257Z,20.28
2022-08-10T08:32:38.971Z,20.32
2022-08-10T08:33:42.881Z,20.36
2022-08-10T08:34:46.069Z,20.41
2022-08-10T08:35:48.918Z,20.44
2022-08-10T08:36:53.907Z,20.49
2022-08-10T08:38:29.176Z,20.52
2022-08-10T08:39:21.247Z,20.58
2022-08-10T08:40:34.176Z,20.66
2022-08-10T08:41:35.877Z,20.71
2022-08-10T08:42:47.161Z,20.75
2022-08-10T08:44:04.441Z,20.81
2022-08-10T08:45:24.372Z,20.85
2022-08-10T08:46:45.002Z,20.91
2022-08-10T08:48:04.610Z,20.97
2022-08-10T08:50:08.862Z,21.01
2022-08-10T08:50:48.484Z,21.04
2022-08-10T08:52:07.330Z,21.07
2022-08-10T08:54:02.370Z,21.15
2022-08-10T08:54:58.355Z,21.22
2022-08-10T08:56:18.749Z,21.23
2022-08-10T08:57:50.632Z,21.29
2022-08-10T08:58:57.950Z,21.32
2022-08-10T09:00:13.790Z,21.37
2022-08-10T09:01:18.374Z,21.42
2022-08-10T09:02:38.928Z,21.46
2022-08-10T09:03:43.771Z,21.51
2022-08-10T09:04:51.758Z,21.57
2022-08-10T09:05:59.430Z,21.61
2022-08-10T09:07:59.739Z,21.65
2022-08-10T09:08:58.358Z,21.70
2022-08-10T09:10:04.879Z,21.75
2022-08-10T09:11:14.832Z,21.78
2022-08-10T09:12:35.490Z,21.83
2022-08-10T09:13:49.096Z,21.86
2022-08-10T09:14:53.761Z,21.91
2022-08-10T09:16:00.663Z,21.94
2022-08-10T09:17:35.041Z,21.98
2022-08-10T09:18:46.077Z,22.06
2022-08-10T09:19:47.898Z,22.11
2022-08-10T09:20:51.846Z,22.14
2022-08-10T09:22:18.187Z,22.20
2022-08-10T09:24:02.166Z,22.22
2022-08-10T09:25:18.041Z,22.27
2022-08-10T09:26:21.953Z,22.35
2022-08-10T09:27:35.382Z,22.41
2022-08-10T09:28:40.680Z,22.49
2022-08-10T09:29:45.241Z,22.54
2022-08-10T09:31:23.129Z,22.59
2022-08-10T09:36:14.338Z,22.59
2022-08-10T09:36:19.619Z,22.67
2022-08-10T09:36:21.006Z,22.77
2022-08-10T09:38:01.175Z,22.84
2022-08-10T09:38:54.785Z,22.97
2022-08-10T09:40:12.363Z,23.04
2022-08-10T09:41:23.496Z,23.10
2022-08-10T09:42:44.127Z,23.10
2022-08-10T09:43:52.506Z,23.00
2022-08-10T09:45:03.662Z,22.92
2022-08-10T09:46:21.811Z,22.90
2022-08-10T09:48:00.110Z,22.97
2022-08-10T09:49:22.361Z,23.09
2022-08-10T09:50:59.021Z,23.21
2022-08-10T09:52:03.153Z,23.28
2022-08-10T09:53:05.708Z,23.38
2022-08-10T09:54:16.447Z,23.44
2022-08-10T09:56:17.750Z,23.49
2022-08-10T09:57:41.323Z,23.53
2022-08-10T09:58:38.747Z,23.51
2022-08-10T10:00:01.262Z,23.43
2022-08-10T10:01:22.362Z,23.35
2022-08-10T10:02:40.944Z,23.43
2022-08-10T10:03:47.435Z,23.52
2022-08-10T10:05:04.543Z,23.62
2022-08-10T10:06:13.704Z,23.74
2022-08-10T10:07:23.015Z,23.82
2022-08-10T10:08:29.353Z,23.89
2022-08-10T10:09:37.105Z,23.99
2022-08-10T10:10:53.494Z,24.01
2022-08-10T10:12:07.026Z,24.12
2022-08-10T10:13:41.569Z,24.20
2022-08-10T10:15:24.503Z,24.32
2022-08-10T10:16:46.154Z,24.46
2022-08-10T10:18:03.370Z,24.53
2022-08-10T10:19:10.516Z,24.48
2022-08-10T10:20:21.489Z,24.37
2022-08-10T10:21:54.772Z,24.44
2022-08-10T10:23:16.963Z,24.48
2022-08-10T10:24:22.968Z,24.55
2022-08-10T10:25:51.443Z,24.63
2022-08-10T10:27:00.182Z,24.66
2022-08-10T10:28:16.937Z,24.66
2022-08-10T10:29:58.786Z,24.83
2022-08-10T10:31:04.957Z,24.87
2022-08-10T10:32:37.597Z,24.89
2022-08-10T10:34:02.424Z,24.88
2022-08-10T10:35:04.312Z,25.04
2022-08-10T10:36:07.244Z,25.08
2022-08-10T10:37:10.754Z,25.00
2022-08-10T10:38:13.942Z,25.11
2022-08-10T10:39:23.802Z,25.07
2022-08-10T10:40:28.012Z,25.00
2022-08-10T10:42:04.649Z,24.94
2022-08-10T10:43:25.150Z,24.91
2022-08-10T10:44:47.238Z,24.85
2022-08-10T10:45:55.767Z,24.98
2022-08-10T10:47:16.032Z,25.14
2022-08-10T10:48:23.928Z,25.29
2022-08-10T10:49:33.237Z,25.30
2022-08-10T10:50:39.082Z,25.26
2022-08-10T10:51:48.458Z,25.14
2022-08-10T10:52:56.239Z,25.05
2022-08-10T10:54:13.551Z,24.94
2022-08-10T10:55:30.532Z,24.85
2022-08-10T10:56:51.103Z,24.84
2022-08-10T10:57:58.643Z,24.90
2022-08-10T10:59:33.318Z,24.91
2022-08-10T11:00:39.776Z,24.90
2022-08-10T11:01:48.080Z,24.79
2022-08-10T11:02:49.841Z,24.73
2022-08-10T11:04:10.161Z,24.74
2022-08-10T11:05:32.215Z,24.83
2022-08-10T11:06:56.827Z,25.12
2022-08-10T11:08:04.201Z,25.38
2022-08-10T11:10:08.886Z,25.55
2022-08-10T11:10:47.362Z,25.73
2022-08-10T11:12:01.471Z,25.83
2022-08-10T11:14:24.951Z,26.00
2022-08-10T11:14:48.864Z,26.17
2022-08-10T11:16:08.545Z,26.29
2022-08-10T11:17:39.727Z,26.45
2022-08-10T11:18:41.499Z,26.42
2022-08-10T11:20:01.707Z,26.37
2022-08-10T11:21:14.677Z,26.39
2022-08-10T11:22:20.472Z,26.53
2022-08-10T11:23:40.625Z,26.55
2022-08-10T11:24:49.489Z,26.63
2022-08-10T11:26:01.932Z,26.72
2022-08-10T11:27:03.727Z,26.76
2022-08-10T11:28:16.542Z,26.83
2022-08-10T11:29:37.246Z,26.88
2022-08-10T11:30:59.498Z,26.89
2022-08-10T11:32:21.515Z,26.91
2022-08-10T11:33:32.611Z,26.95
2022-08-10T11:34:48.401Z,26.86
2022-08-10T11:36:02.613Z,26.83
2022-08-10T11:37:10.744Z,26.76
2022-08-10T11:38:34.209Z,26.79
2022-08-10T11:39:49.365Z,26.81
2022-08-10T11:41:12.790Z,26.68
2022-08-10T11:42:41.756Z,26.43
2022-08-10T11:43:49.238Z,26.30
2022-08-10T11:44:57.774Z,26.19
2022-08-10T11:46:09.153Z,26.11
2022-08-10T11:47:46.610Z,26.00
2022-08-10T11:49:02.070Z,25.90
2022-08-10T11:50:24.555Z,25.80
2022-08-10T11:51:29.084Z,25.80
2022-08-10T11:52:51.236Z,25.94
2022-08-10T11:53:59.108Z,26.17
2022-08-10T11:55:06.324Z,26.25
2022-08-10T11:56:11.498Z,26.24
2022-08-10T11:57:16.034Z,26.28
2022-08-10T11:58:40.334Z,26.34
2022-08-10T11:59:58.098Z,26.45
2022-08-10T12:01:02.810Z,26.48
2022-08-10T12:02:06.250Z,26.44
2022-08-10T12:03:09.079Z,26.38
2022-08-10T12:04:11.988Z,26.33
2022-08-10T12:05:18.276Z,26.28
2022-08-10T12:06:34.004Z,26.25
2022-08-10T12:10:05.324Z,26.18
2022-08-10T12:10:07.322Z,26.23
2022-08-10T12:10:52.610Z,26.34
2022-08-10T12:11:54.583Z,26.44
2022-08-10T12:13:03.171Z,26.45
2022-08-10T12:14:21.566Z,26.51
2022-08-10T12:15:35.845Z,26.51
2022-08-10T12:16:40.317Z,26.59
2022-08-10T12:18:02.498Z,26.60
2022-08-10T12:19:04.771Z,26.62
2022-08-10T12:20:08.969Z,26.63
2022-08-10T12:21:21.585Z,26.76
2022-08-10T12:22:28.594Z,26.96
2022-08-10T12:23:30.421Z,27.03
2022-08-10T12:24:53.996Z,27.12
2022-08-10T12:26:07.728Z,27.20
2022-08-10T12:27:13.221Z,27.21
2022-08-10T12:28:20.593Z,27.19
2022-08-10T12:29:26.682Z,27.18
2022-08-10T12:30:32.604Z,27.12
2022-08-10T12:31:52.801Z,27.17
2022-08-10T12:32:54.569Z,27.22
2022-08-10T12:34:04.477Z,27.23
2022-08-10T12:35:35.782Z,27.19
2022-08-10T12:39:03.362Z,27.04
2022-08-10T12:40:33.822Z,26.92
2022-08-10T12:41:48.814Z,26.87
2022-08-10T12:44:03.853Z,26.86
2022-08-10T12:44:41.274Z,26.86
2022-08-10T12:45:44.224Z,26.87
2022-08-10T12:46:51.165Z,26.90
2022-08-10T12:47:55.984Z,26.96
2022-08-10T12:49:07.278Z,27.06
2022-08-10T12:50:30.911Z,27.11
2022-08-10T12:51:35.836Z,27.20
2022-08-10T12:52:48.833Z,27.26
2022-08-10T12:53:53.657Z,27.33
2022-08-10T12:54:57.474Z,27.38
2022-08-10T12:56:01.964Z,27.40
2022-08-10T12:57:08.091Z,27.44
2022-08-10T12:58:58.798Z,27.51
2022-08-10T12:59:43.162Z,27.63
2022-08-10T13:01:12.746Z,27.80
2022-08-10T13:02:11.079Z,27.93
2022-08-10T13:03:14.139Z,28.05
2022-08-10T13:04:24.844Z,28.12
2022-08-10T13:05:27.532Z,28.23
2022-08-10T13:06:33.691Z,28.35
2022-08-10T13:08:25.965Z,28.48
2022-08-10T13:09:13.202Z,28.62
2022-08-10T13:10:16.784Z,28.72
2022-08-10T13:12:34.368Z,28.84
2022-08-10T13:12:44.363Z,28.89
2022-08-10T13:13:49.395Z,29.00
2022-08-10T13:14:53.335Z,29.04
2022-08-10T13:15:57.761Z,29.08
2022-08-10T13:17:01.016Z,29.07
2022-08-10T13:18:04.078Z,29.04
2022-08-10T13:19:06.774Z,29.03
2022-08-10T13:20:20.240Z,29.00
2022-08-10T13:21:22.287Z,29.04
2022-08-10T13:22:25.946Z,29.08
2022-08-10T13:23:29.353Z,29.15
2022-08-10T13:24:38.005Z,29.09
2022-08-10T13:25:41.958Z,29.07
2022-08-10T13:27:24.462Z,29.02
2022-08-10T13:28:37.116Z,29.04
2022-08-10T13:29:38.025Z,29.17
2022-08-10T13:30:43.742Z,29.28
2022-08-10T13:32:10.161Z,29.38
2022-08-10T13:33:14.424Z,29.47
2022-08-10T13:34:43.822Z,29.59
2022-08-10T13:35:39.626Z,29.65
2022-08-10T13:36:42.425Z,29.77
2022-08-10T13:37:45.509Z,29.82
2022-08-10T13:38:49.098Z,29.91
2022-08-10T13:39:58.020Z,29.99
2022-08-10T13:41:02.835Z,30.09
2022-08-10T13:42:06.239Z,30.14
2022-08-10T13:43:09.293Z,30.25
2022-08-10T13:44:13.403Z,30.29
2022-08-10T13:45:20.659Z,30.33
2022-08-10T13:46:23.678Z,30.37
2022-08-10T13:47:42.411Z,30.37
2022-08-10T13:48:53.807Z,30.46
2022-08-10T13:50:15.607Z,30.47
2022-08-10T13:51:56.547Z,30.55
2022-08-10T13:52:50.967Z,30.55
2022-08-10T13:53:57.384Z,30.48
2022-08-10T13:55:00.798Z,30.47
2022-08-10T13:56:05.559Z,30.41
2022-08-10T13:57:07.631Z,30.45
2022-08-10T13:58:10.683Z,30.47
2022-08-10T13:59:18.364Z,30.53
2022-08-10T14:00:36.477Z,30.58
2022-08-10T14:01:40.908Z,30.67
2022-08-10T14:03:03.270Z,30.68
2022-08-10T14:04:07.175Z,30.69
2022-08-10T14:05:09.981Z,30.72
2022-08-10T14:06:15.637Z,30.65
2022-08-10T14:07:17.905Z,30.74
2022-08-10T14:08:21.883Z,30.70
2022-08-10T14:09:33.300Z,30.72
2022-08-10T14:11:09.690Z,30.80
2022-08-10T14:12:00.199Z,30.79
2022-08-10T14:13:03.569Z,30.80
2022-08-10T14:14:07.508Z,30.88
2022-08-10T14:15:13.927Z,30.88
2022-08-10T14:16:15.990Z,30.99
2022-08-10T14:17:21.182Z,31.09
2022-08-10T14:18:24.122Z,31.02
2022-08-10T14:19:31.013Z,31.02
2022-08-10T14:20:36.741Z,31.00
2022-08-10T14:21:41.915Z,31.02
2022-08-10T14:22:44.230Z,31.09
2022-08-10T14:23:53.061Z,31.17
2022-08-10T14:25:04.788Z,31.23
2022-08-10T14:26:09.191Z,31.30
2022-08-10T14:27:12.376Z,31.24
2022-08-10T14:28:14.883Z,31.23
2022-08-10T14:29:20.127Z,31.28
2022-08-10T14:30:22.952Z,31.37
2022-08-10T14:31:34.647Z,31.39
2022-08-10T14:32:45.507Z,31.32
2022-08-10T14:33:56.389Z,31.37
2022-08-10T14:36:20.493Z,31.43
2022-08-10T14:36:47.394Z,31.43
2022-08-10T14:37:56.438Z,31.58
2022-08-10T14:38:58.997Z,31.67
2022-08-10T14:40:09.054Z,31.56
2022-08-10T14:42:01.868Z,31.42
2022-08-10T14:42:49.801Z,31.44
2022-08-10T14:43:54.766Z,31.43
2022-08-10T14:45:03.350Z,31.41
2022-08-10T14:46:07.061Z,31.42
2022-08-10T14:47:59.358Z,31.46
2022-08-10T14:48:34.092Z,31.55
2022-08-10T14:49:58.132Z,31.64
2022-08-10T14:50:59.936Z,31.50
2022-08-10T14:52:03.284Z,31.43
2022-08-10T14:53:09.652Z,31.25
2022-08-10T14:54:16.028Z,31.25
2022-08-10T14:55:20.120Z,31.44
2022-08-10T14:56:30.458Z,31.49
2022-08-10T14:58:20.274Z,31.51
2022-08-10T14:59:05.370Z,31.67